sensor_id;sensor_type;location;lat;lon;timestamp;temperature;humidity
14473;DHT22;7322;50.872;4.386;2023-02-15T00:00:07;19.10;99.90
14473;DHT22;7322;50.872;4.386;2023-02-15T00:02:36;19.10;99.90
14473;DHT22;7322;50.872;4.386;2023-02-15T00:05:04;19.10;99.90
14473;DHT22;7322;50.872;4.386;2023-02-15T00:07:31;19.10;99.90
14473;DHT22;7322;50.872;4.386;2023-02-15T00:10:00;19.10;99.90
14473;DHT22;7322;50.872;4.386;2023-02-15T00:12:36;19.10;99.90
14473;DHT22;7322;50.872;4.386;2023-02-15T00:15:18;19.10;99.90
14473;DHT22;7322;50.872;4.386;2023-02-15T00:17:45;19.10;99.90
14473;DHT22;7322;50.872;4.386;2023-02-15T00:23:36;19.10;99.90
14473;DHT22;7322;50.872;4.386;2023-02-15T00:26:05;19.00;99.90
14473;DHT22;7322;50.872;4.386;2023-02-15T00:28:35;19.00;99.90
14473;DHT22;7322;50.872;4.386;2023-02-15T00:31:05;19.00;99.90
14473;DHT22;7322;50.872;4.386;2023-02-15T00:33:32;19.00;99.90
14473;DHT22;7322;50.872;4.386;2023-02-15T00:36:00;19.00;99.90
14473;DHT22;7322;50.872;4.386;2023-02-15T00:38:28;19.00;99.90
14473;DHT22;7322;50.872;4.386;2023-02-15T00:40:58;19.00;99.90
14473;DHT22;7322;50.872;4.386;2023-02-15T00:43:27;19.00;99.90
14473;DHT22;7322;50.872;4.386;2023-02-15T00:45:56;19.00;99.90
14473;DHT22;7322;50.872;4.386;2023-02-15T00:48:23;19.00;99.90
14473;DHT22;7322;50.872;4.386;2023-02-15T00:50:55;19.00;99.90
14473;DHT22;7322;50.872;4.386;2023-02-15T00:53:22;19.00;99.90
14473;DHT22;7322;50.872;4.386;2023-02-15T00:55:49;19.00;99.90
14473;DHT22;7322;50.872;4.386;2023-02-15T00:58:17;19.00;99.90
14473;DHT22;7322;50.872;4.386;2023-02-15T01:00:47;19.00;99.90
14473;DHT22;7322;50.872;4.386;2023-02-15T01:03:17;19.00;99.90
14473;DHT22;7322;50.872;4.386;2023-02-15T01:05:44;19.00;99.90
14473;DHT22;7322;50.872;4.386;2023-02-15T01:08:12;19.00;99.90
14473;DHT22;7322;50.872;4.386;2023-02-15T01:10:39;19.00;99.90
14473;DHT22;7322;50.872;4.386;2023-02-15T01:13:08;19.00;99.90
14473;DHT22;7322;50.872;4.386;2023-02-15T01:15:37;19.00;99.90
14473;DHT22;7322;50.872;4.386;2023-02-15T01:18:04;19.00;99.90
14473;DHT22;7322;50.872;4.386;2023-02-15T01:20:36;19.00;99.90
14473;DHT22;7322;50.872;4.386;2023-02-15T01:23:04;19.00;99.90
14473;DHT22;7322;50.872;4.386;2023-02-15T01:25:33;18.90;99.90
14473;DHT22;7322;50.872;4.386;2023-02-15T01:28:02;18.90;99.90
14473;DHT22;7322;50.872;4.386;2023-02-15T01:30:31;18.90;99.90
14473;DHT22;7322;50.872;4.386;2023-02-15T01:32:58;19.00;99.90
14473;DHT22;7322;50.872;4.386;2023-02-15T01:35:26;18.90;99.90
14473;DHT22;7322;50.872;4.386;2023-02-15T01:37:55;18.90;99.90
14473;DHT22;7322;50.872;4.386;2023-02-15T01:40:23;18.90;99.90
14473;DHT22;7322;50.872;4.386;2023-02-15T01:42:51;18.90;99.90
14473;DHT22;7322;50.872;4.386;2023-02-15T01:45:20;18.90;99.90
14473;DHT22;7322;50.872;4.386;2023-02-15T01:47:55;18.90;99.90
14473;DHT22;7322;50.872;4.386;2023-02-15T01:50:27;18.90;99.90
14473;DHT22;7322;50.872;4.386;2023-02-15T01:53:00;18.90;99.90
14473;DHT22;7322;50.872;4.386;2023-02-15T01:55:32;18.90;99.90
14473;DHT22;7322;50.872;4.386;2023-02-15T01:58:02;18.90;99.90
14473;DHT22;7322;50.872;4.386;2023-02-15T02:00:45;18.90;99.90
14473;DHT22;7322;50.872;4.386;2023-02-15T02:07:09;18.90;99.90
14473;DHT22;7322;50.872;4.386;2023-02-15T02:10:15;18.90;99.90
14473;DHT22;7322;50.872;4.386;2023-02-15T02:16:23;18.90;99.90
14473;DHT22;7322;50.872;4.386;2023-02-15T02:22:32;18.80;99.90
14473;DHT22;7322;50.872;4.386;2023-02-15T02:25:48;18.90;99.90
14473;DHT22;7322;50.872;4.386;2023-02-15T02:34:58;18.80;99.90
14473;DHT22;7322;50.872;4.386;2023-02-15T02:37:33;18.80;99.90
14473;DHT22;7322;50.872;4.386;2023-02-15T02:40:10;18.80;99.90
14473;DHT22;7322;50.872;4.386;2023-02-15T02:42:41;18.80;99.90
14473;DHT22;7322;50.872;4.386;2023-02-15T02:45:15;18.80;99.90
14473;DHT22;7322;50.872;4.386;2023-02-15T02:47:48;18.80;99.90
14473;DHT22;7322;50.872;4.386;2023-02-15T02:50:22;18.80;99.90
14473;DHT22;7322;50.872;4.386;2023-02-15T02:52:51;18.80;99.90
14473;DHT22;7322;50.872;4.386;2023-02-15T02:55:22;18.80;99.90
14473;DHT22;7322;50.872;4.386;2023-02-15T02:57:54;18.80;99.90
14473;DHT22;7322;50.872;4.386;2023-02-15T03:00:24;18.80;99.90
14473;DHT22;7322;50.872;4.386;2023-02-15T03:02:56;18.80;99.90
14473;DHT22;7322;50.872;4.386;2023-02-15T03:05:33;18.80;99.90
14473;DHT22;7322;50.872;4.386;2023-02-15T03:08:03;18.80;99.90
14473;DHT22;7322;50.872;4.386;2023-02-15T03:10:32;18.80;99.90
14473;DHT22;7322;50.872;4.386;2023-02-15T03:13:02;18.80;99.90
14473;DHT22;7322;50.872;4.386;2023-02-15T03:15:31;18.80;99.90
14473;DHT22;7322;50.872;4.386;2023-02-15T03:18:14;18.80;99.90
14473;DHT22;7322;50.872;4.386;2023-02-15T03:20:47;18.80;99.90
14473;DHT22;7322;50.872;4.386;2023-02-15T03:23:17;18.80;99.90
14473;DHT22;7322;50.872;4.386;2023-02-15T03:25:57;18.80;99.90
14473;DHT22;7322;50.872;4.386;2023-02-15T03:28:29;18.80;99.90
14473;DHT22;7322;50.872;4.386;2023-02-15T03:31:02;18.80;99.90
14473;DHT22;7322;50.872;4.386;2023-02-15T03:33:32;18.80;99.90
14473;DHT22;7322;50.872;4.386;2023-02-15T03:36:05;18.80;99.90
14473;DHT22;7322;50.872;4.386;2023-02-15T03:38:38;18.80;99.90
14473;DHT22;7322;50.872;4.386;2023-02-15T03:41:12;18.80;99.90
14473;DHT22;7322;50.872;4.386;2023-02-15T03:43:47;18.80;99.90
14473;DHT22;7322;50.872;4.386;2023-02-15T03:46:21;18.80;99.90
14473;DHT22;7322;50.872;4.386;2023-02-15T03:48:53;18.80;99.90
14473;DHT22;7322;50.872;4.386;2023-02-15T03:51:28;18.80;99.90
14473;DHT22;7322;50.872;4.386;2023-02-15T03:54:08;18.80;99.90
14473;DHT22;7322;50.872;4.386;2023-02-15T03:56:38;18.80;99.90
14473;DHT22;7322;50.872;4.386;2023-02-15T03:59:07;18.80;99.90
14473;DHT22;7322;50.872;4.386;2023-02-15T04:02:01;18.70;99.90
14473;DHT22;7322;50.872;4.386;2023-02-15T04:04:38;18.70;99.90
14473;DHT22;7322;50.872;4.386;2023-02-15T04:07:09;18.70;99.90
14473;DHT22;7322;50.872;4.386;2023-02-15T04:09:37;18.70;99.90
14473;DHT22;7322;50.872;4.386;2023-02-15T04:12:33;18.70;99.90
14473;DHT22;7322;50.872;4.386;2023-02-15T04:15:00;18.70;99.90
14473;DHT22;7322;50.872;4.386;2023-02-15T04:17:45;18.70;99.90
14473;DHT22;7322;50.872;4.386;2023-02-15T04:20:13;18.70;99.90
14473;DHT22;7322;50.872;4.386;2023-02-15T04:23:00;18.70;99.90
14473;DHT22;7322;50.872;4.386;2023-02-15T04:25:45;18.70;99.90
14473;DHT22;7322;50.872;4.386;2023-02-15T04:28:12;18.70;99.90
14473;DHT22;7322;50.872;4.386;2023-02-15T04:30:40;18.70;99.90
14473;DHT22;7322;50.872;4.386;2023-02-15T04:33:07;18.70;99.90
14473;DHT22;7322;50.872;4.386;2023-02-15T04:35:35;18.70;99.90
14473;DHT22;7322;50.872;4.386;2023-02-15T04:38:04;18.70;99.90
14473;DHT22;7322;50.872;4.386;2023-02-15T04:40:32;18.70;99.90
14473;DHT22;7322;50.872;4.386;2023-02-15T04:43:05;18.70;99.90
14473;DHT22;7322;50.872;4.386;2023-02-15T04:45:33;18.70;99.90
14473;DHT22;7322;50.872;4.386;2023-02-15T04:48:00;18.70;99.90
14473;DHT22;7322;50.872;4.386;2023-02-15T04:50:28;18.70;99.90
14473;DHT22;7322;50.872;4.386;2023-02-15T04:52:56;18.70;99.90
14473;DHT22;7322;50.872;4.386;2023-02-15T04:55:25;18.70;99.90
14473;DHT22;7322;50.872;4.386;2023-02-15T04:57:52;18.70;99.90
14473;DHT22;7322;50.872;4.386;2023-02-15T05:00:19;18.70;99.90
14473;DHT22;7322;50.872;4.386;2023-02-15T05:02:50;18.70;99.90
14473;DHT22;7322;50.872;4.386;2023-02-15T05:05:17;18.70;99.90
14473;DHT22;7322;50.872;4.386;2023-02-15T05:07:44;18.70;99.90
14473;DHT22;7322;50.872;4.386;2023-02-15T05:10:11;18.70;99.90
14473;DHT22;7322;50.872;4.386;2023-02-15T05:12:40;18.70;99.90
14473;DHT22;7322;50.872;4.386;2023-02-15T05:15:08;18.70;99.90
14473;DHT22;7322;50.872;4.386;2023-02-15T05:17:35;18.70;99.90
14473;DHT22;7322;50.872;4.386;2023-02-15T05:20:05;18.70;99.90
14473;DHT22;7322;50.872;4.386;2023-02-15T05:22:34;18.70;99.90
14473;DHT22;7322;50.872;4.386;2023-02-15T05:25:01;18.70;99.90
14473;DHT22;7322;50.872;4.386;2023-02-15T05:27:47;18.70;99.90
14473;DHT22;7322;50.872;4.386;2023-02-15T05:30:31;18.60;99.90
14473;DHT22;7322;50.872;4.386;2023-02-15T05:32:58;18.60;99.90
14473;DHT22;7322;50.872;4.386;2023-02-15T05:35:26;18.60;99.90
14473;DHT22;7322;50.872;4.386;2023-02-15T05:37:55;18.60;99.90
14473;DHT22;7322;50.872;4.386;2023-02-15T05:40:22;18.60;99.90
14473;DHT22;7322;50.872;4.386;2023-02-15T05:42:52;18.60;99.90
14473;DHT22;7322;50.872;4.386;2023-02-15T05:45:19;18.60;99.90
14473;DHT22;7322;50.872;4.386;2023-02-15T05:47:47;18.60;99.90
14473;DHT22;7322;50.872;4.386;2023-02-15T05:50:14;18.60;99.90
14473;DHT22;7322;50.872;4.386;2023-02-15T05:52:41;18.60;99.90
14473;DHT22;7322;50.872;4.386;2023-02-15T05:55:08;18.60;99.90
14473;DHT22;7322;50.872;4.386;2023-02-15T05:57:37;18.70;99.90
14473;DHT22;7322;50.872;4.386;2023-02-15T06:00:07;18.80;99.90
14473;DHT22;7322;50.872;4.386;2023-02-15T06:02:35;18.90;99.90
14473;DHT22;7322;50.872;4.386;2023-02-15T06:05:03;19.10;99.90
14473;DHT22;7322;50.872;4.386;2023-02-15T06:07:32;19.20;99.90
14473;DHT22;7322;50.872;4.386;2023-02-15T06:10:02;19.40;99.90
14473;DHT22;7322;50.872;4.386;2023-02-15T06:12:30;19.70;99.90
14473;DHT22;7322;50.872;4.386;2023-02-15T06:14:57;19.90;99.90
14473;DHT22;7322;50.872;4.386;2023-02-15T06:17:26;20.10;99.90
14473;DHT22;7322;50.872;4.386;2023-02-15T06:19:53;20.40;99.90
14473;DHT22;7322;50.872;4.386;2023-02-15T06:22:21;20.50;99.90
14473;DHT22;7322;50.872;4.386;2023-02-15T06:24:48;20.70;99.90
14473;DHT22;7322;50.872;4.386;2023-02-15T06:27:17;20.90;99.90
14473;DHT22;7322;50.872;4.386;2023-02-15T06:29:44;21.00;99.90
14473;DHT22;7322;50.872;4.386;2023-02-15T06:32:17;21.10;99.90
14473;DHT22;7322;50.872;4.386;2023-02-15T06:34:46;21.20;99.90
14473;DHT22;7322;50.872;4.386;2023-02-15T06:37:15;21.20;99.90
14473;DHT22;7322;50.872;4.386;2023-02-15T06:39:42;21.20;99.90
14473;DHT22;7322;50.872;4.386;2023-02-15T06:42:10;21.20;99.90
14473;DHT22;7322;50.872;4.386;2023-02-15T06:44:36;21.30;99.90
14473;DHT22;7322;50.872;4.386;2023-02-15T06:47:04;21.20;99.90
14473;DHT22;7322;50.872;4.386;2023-02-15T06:49:30;21.20;99.90
14473;DHT22;7322;50.872;4.386;2023-02-15T06:52:00;21.20;99.90
14473;DHT22;7322;50.872;4.386;2023-02-15T06:54:28;21.20;99.90
14473;DHT22;7322;50.872;4.386;2023-02-15T06:56:55;21.20;99.90
14473;DHT22;7322;50.872;4.386;2023-02-15T06:59:24;21.10;99.90
14473;DHT22;7322;50.872;4.386;2023-02-15T07:01:51;21.10;99.90
14473;DHT22;7322;50.872;4.386;2023-02-15T07:04:18;21.00;99.90
14473;DHT22;7322;50.872;4.386;2023-02-15T07:06:45;21.00;99.90
14473;DHT22;7322;50.872;4.386;2023-02-15T07:09:13;21.00;99.90
14473;DHT22;7322;50.872;4.386;2023-02-15T07:11:40;20.90;99.90
14473;DHT22;7322;50.872;4.386;2023-02-15T07:14:25;20.80;99.90
14473;DHT22;7322;50.872;4.386;2023-02-15T07:16:52;20.80;99.90
14473;DHT22;7322;50.872;4.386;2023-02-15T07:19:27;20.80;99.90
14473;DHT22;7322;50.872;4.386;2023-02-15T07:21:55;20.70;99.90
14473;DHT22;7322;50.872;4.386;2023-02-15T07:24:23;20.70;99.90
14473;DHT22;7322;50.872;4.386;2023-02-15T07:26:50;20.60;99.90
14473;DHT22;7322;50.872;4.386;2023-02-15T07:29:18;20.60;99.90
14473;DHT22;7322;50.872;4.386;2023-02-15T07:31:44;20.50;99.90
14473;DHT22;7322;50.872;4.386;2023-02-15T07:34:12;20.50;99.90
14473;DHT22;7322;50.872;4.386;2023-02-15T07:36:40;20.50;99.90
14473;DHT22;7322;50.872;4.386;2023-02-15T07:39:08;20.40;99.90
14473;DHT22;7322;50.872;4.386;2023-02-15T07:41:37;20.40;99.90
14473;DHT22;7322;50.872;4.386;2023-02-15T07:44:04;20.40;99.90
14473;DHT22;7322;50.872;4.386;2023-02-15T07:46:31;20.40;99.90
14473;DHT22;7322;50.872;4.386;2023-02-15T07:49:04;20.30;99.90
14473;DHT22;7322;50.872;4.386;2023-02-15T07:51:31;20.30;99.90
14473;DHT22;7322;50.872;4.386;2023-02-15T07:54:04;20.20;99.90
14473;DHT22;7322;50.872;4.386;2023-02-15T07:56:31;20.20;99.90
14473;DHT22;7322;50.872;4.386;2023-02-15T07:59:01;20.20;99.90
14473;DHT22;7322;50.872;4.386;2023-02-15T08:01:32;20.10;99.90
14473;DHT22;7322;50.872;4.386;2023-02-15T08:04:01;20.10;99.90
14473;DHT22;7322;50.872;4.386;2023-02-15T08:06:31;20.10;99.90
14473;DHT22;7322;50.872;4.386;2023-02-15T08:08:59;20.00;99.90
14473;DHT22;7322;50.872;4.386;2023-02-15T08:11:28;20.00;99.90
14473;DHT22;7322;50.872;4.386;2023-02-15T08:14:00;20.00;99.90
14473;DHT22;7322;50.872;4.386;2023-02-15T08:16:31;19.90;99.90
14473;DHT22;7322;50.872;4.386;2023-02-15T08:19:01;19.90;99.90
14473;DHT22;7322;50.872;4.386;2023-02-15T08:21:30;19.90;99.90
14473;DHT22;7322;50.872;4.386;2023-02-15T08:23:57;19.80;99.90
14473;DHT22;7322;50.872;4.386;2023-02-15T08:26:26;19.90;99.90
14473;DHT22;7322;50.872;4.386;2023-02-15T08:28:55;19.80;99.90
14473;DHT22;7322;50.872;4.386;2023-02-15T08:31:24;19.80;99.90
14473;DHT22;7322;50.872;4.386;2023-02-15T08:33:55;19.80;99.90
14473;DHT22;7322;50.872;4.386;2023-02-15T08:36:24;19.70;99.90
14473;DHT22;7322;50.872;4.386;2023-02-15T08:38:52;19.70;99.90
14473;DHT22;7322;50.872;4.386;2023-02-15T08:41:21;19.70;99.90
14473;DHT22;7322;50.872;4.386;2023-02-15T08:43:50;19.60;99.90
14473;DHT22;7322;50.872;4.386;2023-02-15T08:46:20;19.60;99.90
14473;DHT22;7322;50.872;4.386;2023-02-15T08:48:48;19.60;99.90
14473;DHT22;7322;50.872;4.386;2023-02-15T08:51:18;19.60;99.90
14473;DHT22;7322;50.872;4.386;2023-02-15T08:53:47;19.50;99.90
14473;DHT22;7322;50.872;4.386;2023-02-15T08:56:16;19.50;99.90
14473;DHT22;7322;50.872;4.386;2023-02-15T08:58:43;19.50;99.90
14473;DHT22;7322;50.872;4.386;2023-02-15T09:01:11;19.50;99.90
14473;DHT22;7322;50.872;4.386;2023-02-15T09:03:45;19.50;99.90
14473;DHT22;7322;50.872;4.386;2023-02-15T09:06:15;19.50;99.90
14473;DHT22;7322;50.872;4.386;2023-02-15T09:08:43;19.50;99.90
14473;DHT22;7322;50.872;4.386;2023-02-15T09:11:11;19.50;99.90
14473;DHT22;7322;50.872;4.386;2023-02-15T09:13:39;19.40;99.90
14473;DHT22;7322;50.872;4.386;2023-02-15T09:16:08;19.40;99.90
14473;DHT22;7322;50.872;4.386;2023-02-15T09:18:37;19.40;99.90
14473;DHT22;7322;50.872;4.386;2023-02-15T09:21:05;19.40;99.90
14473;DHT22;7322;50.872;4.386;2023-02-15T09:23:35;19.40;99.90
14473;DHT22;7322;50.872;4.386;2023-02-15T09:26:04;19.40;99.90
14473;DHT22;7322;50.872;4.386;2023-02-15T09:28:33;19.40;99.90
14473;DHT22;7322;50.872;4.386;2023-02-15T09:31:10;19.40;99.90
14473;DHT22;7322;50.872;4.386;2023-02-15T09:33:39;19.40;99.90
14473;DHT22;7322;50.872;4.386;2023-02-15T09:36:15;19.40;99.90
14473;DHT22;7322;50.872;4.386;2023-02-15T09:38:44;19.40;99.90
14473;DHT22;7322;50.872;4.386;2023-02-15T09:41:27;19.30;99.90
14473;DHT22;7322;50.872;4.386;2023-02-15T09:44:07;19.40;99.90
14473;DHT22;7322;50.872;4.386;2023-02-15T09:46:49;19.30;99.90
14473;DHT22;7322;50.872;4.386;2023-02-15T09:49:28;19.30;99.90
14473;DHT22;7322;50.872;4.386;2023-02-15T09:52:22;19.30;99.90
14473;DHT22;7322;50.872;4.386;2023-02-15T09:55:04;19.40;99.90
14473;DHT22;7322;50.872;4.386;2023-02-15T09:57:40;19.30;99.90
14473;DHT22;7322;50.872;4.386;2023-02-15T10:00:21;19.30;99.90
14473;DHT22;7322;50.872;4.386;2023-02-15T10:05:47;19.30;99.90
14473;DHT22;7322;50.872;4.386;2023-02-15T10:08:40;19.30;99.90
14473;DHT22;7322;50.872;4.386;2023-02-15T10:11:21;19.40;99.90
14473;DHT22;7322;50.872;4.386;2023-02-15T10:17:13;19.50;99.90
14473;DHT22;7322;50.872;4.386;2023-02-15T10:19:50;19.50;99.90
14473;DHT22;7322;50.872;4.386;2023-02-15T10:22:32;19.50;99.90
14473;DHT22;7322;50.872;4.386;2023-02-15T10:25:19;19.60;99.90
14473;DHT22;7322;50.872;4.386;2023-02-15T10:27:50;19.60;99.90
14473;DHT22;7322;50.872;4.386;2023-02-15T10:30:21;19.60;99.90
14473;DHT22;7322;50.872;4.386;2023-02-15T10:32:57;19.70;99.90
14473;DHT22;7322;50.872;4.386;2023-02-15T10:35:34;19.70;99.90
14473;DHT22;7322;50.872;4.386;2023-02-15T10:38:19;19.70;99.90
14473;DHT22;7322;50.872;4.386;2023-02-15T10:40:57;19.60;99.90
14473;DHT22;7322;50.872;4.386;2023-02-15T10:43:41;19.60;99.90
14473;DHT22;7322;50.872;4.386;2023-02-15T10:46:22;19.60;99.90
14473;DHT22;7322;50.872;4.386;2023-02-15T10:49:03;19.60;99.90
14473;DHT22;7322;50.872;4.386;2023-02-15T10:51:42;19.60;99.90
14473;DHT22;7322;50.872;4.386;2023-02-15T10:54:20;19.60;99.90
14473;DHT22;7322;50.872;4.386;2023-02-15T10:56:59;19.60;99.90
14473;DHT22;7322;50.872;4.386;2023-02-15T10:59:47;19.60;99.90
14473;DHT22;7322;50.872;4.386;2023-02-15T11:02:25;19.60;99.90
14473;DHT22;7322;50.872;4.386;2023-02-15T11:05:07;19.60;99.90
14473;DHT22;7322;50.872;4.386;2023-02-15T11:07:44;19.60;99.90
14473;DHT22;7322;50.872;4.386;2023-02-15T11:10:24;19.60;99.90
14473;DHT22;7322;50.872;4.386;2023-02-15T11:12:56;19.60;99.90
14473;DHT22;7322;50.872;4.386;2023-02-15T11:15:38;19.60;99.90
14473;DHT22;7322;50.872;4.386;2023-02-15T11:18:14;19.70;99.90
14473;DHT22;7322;50.872;4.386;2023-02-15T11:20:57;19.70;99.90
14473;DHT22;7322;50.872;4.386;2023-02-15T11:23:43;19.70;99.90
14473;DHT22;7322;50.872;4.386;2023-02-15T11:26:14;19.80;99.90
14473;DHT22;7322;50.872;4.386;2023-02-15T11:28:51;19.80;99.90
14473;DHT22;7322;50.872;4.386;2023-02-15T11:31:23;19.90;99.90
14473;DHT22;7322;50.872;4.386;2023-02-15T11:34:29;19.90;99.90
14473;DHT22;7322;50.872;4.386;2023-02-15T11:37:01;20.00;99.90
14473;DHT22;7322;50.872;4.386;2023-02-15T11:39:48;20.00;99.90
14473;DHT22;7322;50.872;4.386;2023-02-15T11:42:46;20.10;99.90
14473;DHT22;7322;50.872;4.386;2023-02-15T11:45:28;20.20;99.90
14473;DHT22;7322;50.872;4.386;2023-02-15T11:48:08;20.30;99.90
14473;DHT22;7322;50.872;4.386;2023-02-15T11:50:43;20.30;99.90
14473;DHT22;7322;50.872;4.386;2023-02-15T11:53:32;20.40;99.90
14473;DHT22;7322;50.872;4.386;2023-02-15T11:59:12;20.50;99.90
14473;DHT22;7322;50.872;4.386;2023-02-15T12:02:19;20.50;99.90
14473;DHT22;7322;50.872;4.386;2023-02-15T12:05:10;20.60;99.90
14473;DHT22;7322;50.872;4.386;2023-02-15T12:07:44;20.70;99.90
14473;DHT22;7322;50.872;4.386;2023-02-15T12:10:18;20.70;99.90
14473;DHT22;7322;50.872;4.386;2023-02-15T12:13:16;20.70;99.90
14473;DHT22;7322;50.872;4.386;2023-02-15T12:15:56;20.80;99.90
14473;DHT22;7322;50.872;4.386;2023-02-15T12:18:34;20.80;99.90
14473;DHT22;7322;50.872;4.386;2023-02-15T12:21:07;20.80;99.90
14473;DHT22;7322;50.872;4.386;2023-02-15T12:23:51;20.80;99.90
14473;DHT22;7322;50.872;4.386;2023-02-15T12:26:24;20.90;99.90
14473;DHT22;7322;50.872;4.386;2023-02-15T12:28:52;20.80;99.90
14473;DHT22;7322;50.872;4.386;2023-02-15T12:31:27;20.80;99.90
14473;DHT22;7322;50.872;4.386;2023-02-15T12:34:13;20.80;99.90
14473;DHT22;7322;50.872;4.386;2023-02-15T12:36:50;20.80;99.90
14473;DHT22;7322;50.872;4.386;2023-02-15T12:39:25;20.80;99.90
14473;DHT22;7322;50.872;4.386;2023-02-15T12:42:02;20.80;99.90
14473;DHT22;7322;50.872;4.386;2023-02-15T12:44:31;20.80;99.90
14473;DHT22;7322;50.872;4.386;2023-02-15T12:47:02;20.80;99.90
14473;DHT22;7322;50.872;4.386;2023-02-15T12:49:30;20.80;99.90
14473;DHT22;7322;50.872;4.386;2023-02-15T12:52:01;20.80;99.90
14473;DHT22;7322;50.872;4.386;2023-02-15T12:54:48;20.80;99.90
14473;DHT22;7322;50.872;4.386;2023-02-15T12:57:34;20.80;99.90
14473;DHT22;7322;50.872;4.386;2023-02-15T13:00:26;20.70;99.90
14473;DHT22;7322;50.872;4.386;2023-02-15T13:03:16;20.70;99.90
14473;DHT22;7322;50.872;4.386;2023-02-15T13:05:55;20.70;99.90
14473;DHT22;7322;50.872;4.386;2023-02-15T13:08:30;20.60;99.90
14473;DHT22;7322;50.872;4.386;2023-02-15T13:11:02;20.60;99.90
14473;DHT22;7322;50.872;4.386;2023-02-15T13:13:47;20.60;99.90
14473;DHT22;7322;50.872;4.386;2023-02-15T13:16:23;20.60;99.90
14473;DHT22;7322;50.872;4.386;2023-02-15T13:19:03;20.50;99.90
14473;DHT22;7322;50.872;4.386;2023-02-15T13:21:40;20.60;99.90
14473;DHT22;7322;50.872;4.386;2023-02-15T13:24:17;20.50;99.90
14473;DHT22;7322;50.872;4.386;2023-02-15T13:26:45;20.50;99.90
14473;DHT22;7322;50.872;4.386;2023-02-15T13:29:19;20.50;99.90
14473;DHT22;7322;50.872;4.386;2023-02-15T13:31:48;20.50;99.90
14473;DHT22;7322;50.872;4.386;2023-02-15T13:34:18;20.40;99.90
14473;DHT22;7322;50.872;4.386;2023-02-15T13:36:53;20.40;99.90
14473;DHT22;7322;50.872;4.386;2023-02-15T13:39:29;20.40;99.90
14473;DHT22;7322;50.872;4.386;2023-02-15T13:42:01;20.40;99.90
14473;DHT22;7322;50.872;4.386;2023-02-15T13:44:50;20.40;99.90
14473;DHT22;7322;50.872;4.386;2023-02-15T13:47:23;20.40;99.90
14473;DHT22;7322;50.872;4.386;2023-02-15T13:50:16;20.30;99.90
14473;DHT22;7322;50.872;4.386;2023-02-15T13:52:52;20.40;99.90
14473;DHT22;7322;50.872;4.386;2023-02-15T13:55:40;20.30;99.90
14473;DHT22;7322;50.872;4.386;2023-02-15T13:58:31;20.30;99.90
14473;DHT22;7322;50.872;4.386;2023-02-15T14:01:08;20.30;99.90
14473;DHT22;7322;50.872;4.386;2023-02-15T14:06:53;20.20;99.90
14473;DHT22;7322;50.872;4.386;2023-02-15T14:09:50;20.20;99.90
14473;DHT22;7322;50.872;4.386;2023-02-15T14:12:46;20.20;99.90
14473;DHT22;7322;50.872;4.386;2023-02-15T14:15:34;20.10;99.90
14473;DHT22;7322;50.872;4.386;2023-02-15T14:18:12;20.00;99.90
14473;DHT22;7322;50.872;4.386;2023-02-15T14:20:51;20.00;99.90
14473;DHT22;7322;50.872;4.386;2023-02-15T14:23:32;20.00;99.90
14473;DHT22;7322;50.872;4.386;2023-02-15T14:26:08;20.00;99.90
14473;DHT22;7322;50.872;4.386;2023-02-15T14:28:51;20.00;99.90
14473;DHT22;7322;50.872;4.386;2023-02-15T14:31:30;19.90;99.90
14473;DHT22;7322;50.872;4.386;2023-02-15T14:34:19;19.90;99.90
14473;DHT22;7322;50.872;4.386;2023-02-15T14:36:48;19.90;99.90
14473;DHT22;7322;50.872;4.386;2023-02-15T14:39:28;19.90;99.90
14473;DHT22;7322;50.872;4.386;2023-02-15T14:42:23;19.90;99.90
14473;DHT22;7322;50.872;4.386;2023-02-15T14:45:15;19.90;99.90
14473;DHT22;7322;50.872;4.386;2023-02-15T14:47:54;19.90;99.90
14473;DHT22;7322;50.872;4.386;2023-02-15T14:50:43;19.90;99.90
14473;DHT22;7322;50.872;4.386;2023-02-15T14:56:25;19.90;99.90
14473;DHT22;7322;50.872;4.386;2023-02-15T14:59:19;19.80;99.90
14473;DHT22;7322;50.872;4.386;2023-02-15T15:02:07;19.80;99.90
14473;DHT22;7322;50.872;4.386;2023-02-15T15:04:57;19.80;99.90
14473;DHT22;7322;50.872;4.386;2023-02-15T15:07:38;19.80;99.90
14473;DHT22;7322;50.872;4.386;2023-02-15T15:13:53;19.80;99.90
14473;DHT22;7322;50.872;4.386;2023-02-15T15:16:47;19.80;99.90
14473;DHT22;7322;50.872;4.386;2023-02-15T15:22:46;19.80;99.90
14473;DHT22;7322;50.872;4.386;2023-02-15T15:25:48;19.70;99.90
14473;DHT22;7322;50.872;4.386;2023-02-15T15:31:48;19.70;99.90
14473;DHT22;7322;50.872;4.386;2023-02-15T15:34:51;19.70;99.90
14473;DHT22;7322;50.872;4.386;2023-02-15T15:40:55;19.70;99.90
14473;DHT22;7322;50.872;4.386;2023-02-15T15:43:51;19.70;99.90
14473;DHT22;7322;50.872;4.386;2023-02-15T15:46:48;19.70;99.90
14473;DHT22;7322;50.872;4.386;2023-02-15T15:49:20;19.70;99.90
14473;DHT22;7322;50.872;4.386;2023-02-15T15:51:51;19.60;99.90
14473;DHT22;7322;50.872;4.386;2023-02-15T15:54:20;19.60;99.90
14473;DHT22;7322;50.872;4.386;2023-02-15T15:56:52;19.60;99.90
14473;DHT22;7322;50.872;4.386;2023-02-15T15:59:25;19.60;99.90
14473;DHT22;7322;50.872;4.386;2023-02-15T16:02:06;19.60;99.90
14473;DHT22;7322;50.872;4.386;2023-02-15T16:04:44;19.60;99.90
14473;DHT22;7322;50.872;4.386;2023-02-15T16:07:27;19.60;99.90
14473;DHT22;7322;50.872;4.386;2023-02-15T16:10:22;19.60;99.90
14473;DHT22;7322;50.872;4.386;2023-02-15T16:13:06;19.50;99.90
14473;DHT22;7322;50.872;4.386;2023-02-15T16:15:44;19.50;99.90
14473;DHT22;7322;50.872;4.386;2023-02-15T16:18:37;19.50;99.90
14473;DHT22;7322;50.872;4.386;2023-02-15T16:21:22;19.50;99.90
14473;DHT22;7322;50.872;4.386;2023-02-15T16:24:06;19.50;99.90
14473;DHT22;7322;50.872;4.386;2023-02-15T16:26:59;19.50;99.90
14473;DHT22;7322;50.872;4.386;2023-02-15T16:29:50;19.50;99.90
14473;DHT22;7322;50.872;4.386;2023-02-15T16:32:21;19.50;99.90
14473;DHT22;7322;50.872;4.386;2023-02-15T16:34:59;19.40;99.90
14473;DHT22;7322;50.872;4.386;2023-02-15T16:37:42;19.40;99.90
14473;DHT22;7322;50.872;4.386;2023-02-15T16:40:28;19.40;99.90
14473;DHT22;7322;50.872;4.386;2023-02-15T16:43:02;19.40;99.90
14473;DHT22;7322;50.872;4.386;2023-02-15T16:45:43;19.40;99.90
14473;DHT22;7322;50.872;4.386;2023-02-15T16:48:21;19.40;99.90
14473;DHT22;7322;50.872;4.386;2023-02-15T16:50:58;19.40;99.90
14473;DHT22;7322;50.872;4.386;2023-02-15T16:53:28;19.40;99.90
14473;DHT22;7322;50.872;4.386;2023-02-15T16:56:05;19.40;99.90
14473;DHT22;7322;50.872;4.386;2023-02-15T16:58:37;19.40;99.90
14473;DHT22;7322;50.872;4.386;2023-02-15T17:04:35;19.40;99.90
14473;DHT22;7322;50.872;4.386;2023-02-15T17:07:05;19.30;99.90
14473;DHT22;7322;50.872;4.386;2023-02-15T17:09:33;19.30;99.90
14473;DHT22;7322;50.872;4.386;2023-02-15T17:12:01;19.30;99.90
14473;DHT22;7322;50.872;4.386;2023-02-15T17:14:30;19.30;99.90
14473;DHT22;7322;50.872;4.386;2023-02-15T17:17:04;19.30;99.90
14473;DHT22;7322;50.872;4.386;2023-02-15T17:19:49;19.30;99.90
14473;DHT22;7322;50.872;4.386;2023-02-15T17:22:20;19.30;99.90
14473;DHT22;7322;50.872;4.386;2023-02-15T17:25:14;19.30;99.90